Sagehen Creek Weather observations

Data are for observation ending at time listed.
 Day   Time    Ave.   Ave.  Ave.  Vector   Max.   Stn.    Total    Solar   Ave.  
  of    of     Air    Rel.  Wind   Wind    Wind   Baro.  Precip.   Rad.    Soil  
Year   Day     Temp.  Hum.  Speed  Dir.    Gust   Pres.                    Temp. 
2016   (PST)    F      %     mph   deg.    mph     mb.     in.     W/m2     F   
------------------------------------------------------------------------------
 179   20:10   56.5    58    0.1   237      0.3   840.3    3.06       0    999.0
 179   20:20   55.4    57    0.4   253      1.0   840.4    3.06       0    999.0
 179   20:30   54.5    60    0.3   238      1.0   840.5    3.06       0    999.0
 179   20:40   53.3    62    0.5   239      0.7   840.7    3.06       0    999.0
 179   20:50   52.2    65    0.4   240      0.8   840.8    3.06       0    999.0
 179   21:00   51.4    65    0.2   243      0.7   840.9    3.06       0    999.0
 179   21:10   50.7    68    0.3   240      1.0   840.9    3.06       0    999.0
 179   21:20   49.8    68    0.4   254      1.0   840.7    3.06       0    999.0
 179   21:30   49.2    69    0.3   256      0.9   840.4    3.06       0    999.0
 179   21:40   48.8    68    0.7   258      1.0   840.9    3.06       0    999.0
 179   21:50   48.2    71    0.5   245      0.9   840.8    3.06       0    999.0
 179   22:00   47.4    71    0.3   247      0.8   840.7    3.06       0    999.0
 179   22:10   47.0    71    0.4   259      1.2   840.5    3.06       0    999.0
 179   22:20   46.6    75    0.5   245      1.0   840.7    3.06       0    999.0
 179   22:30   46.0    74    0.6   258      1.1   840.9    3.06       0    999.0
 179   22:40   45.5    75    0.3   252      0.9   840.4    3.06       0    999.0
 179   22:50   45.2    77    0.6   246      0.9   840.6    3.06       0    999.0
 179   23:00   44.5    80    0.8   230      1.1   840.8    3.06       0    999.0
 179   23:10   43.9    80    0.6   231      1.2   840.3    3.06       0    999.0
 179   23:20   43.7    78    0.6   257      1.1   840.4    3.06       0    999.0
 179   23:30   43.6    76    0.9   258      1.5   840.5    3.06       0    999.0
 179   23:40   43.1    77    0.2   244      0.9   840.3    3.06       0    999.0
 179   23:50   42.5    77    0.3   250      1.1   840.6    3.06       0    999.0
 180    0:00   42.0    78    0.5   246      1.3   840.8    3.06       0    999.0
 180    0:10   41.6    78    0.7   264      1.5   840.6    3.06       0    999.0
 180    0:20   41.2    78    0.9   246      1.2   840.7    3.06       0    999.0
 180    0:30   40.8    79    0.7   247      1.3   840.8    3.06       0    999.0
 180    0:40   40.3    81    0.7   240      1.0   840.8    3.06       0    999.0
 180    0:50   39.8    81    0.5   251      1.0   840.6    3.06       0    999.0
 180    1:00   39.5    80    0.7   253      1.1   840.4    3.06       0    999.0
 180    1:10   39.1    80    0.5   255      1.2   840.9    3.06       0    999.0
 180    1:20   38.6    80    0.6   264      1.1   840.7    3.06       0    999.0
 180    1:30   38.3    79    0.9   263      1.3   840.5    3.06       0    999.0
 180    1:40   37.9    80    0.8   244      1.3   841.0    3.06       0    999.0
 180    1:50   37.5    80    0.7   249      1.4   840.9    3.06       0    999.0
 180    2:00   37.2    81    0.7   259      1.5   840.9    3.06       0    999.0
 180    2:10   36.9    82    0.6   243      1.4   840.6    3.06       0    999.0
 180    2:20   36.7    82    0.6   256      1.3   840.8    3.06       0    999.0
 180    2:30   36.6    81    0.8   258      1.5   841.0    3.06       0    999.0
 180    2:40   36.2    81    1.0   271      1.5   840.7    3.06       0    999.0
 180    2:50   36.0    82    0.8   253      1.1   840.6    3.06       0    999.0
 180    3:00   35.8    81    0.5   265      1.2   840.5    3.06       0    999.0
 180    3:10   35.5    82    0.6   259      1.4   840.8    3.06       0    999.0
 180    3:20   35.3    82    0.2   268      0.8   840.7    3.06       0    999.0
 180    3:30   35.1    83    0.5   256      1.6   840.6    3.06       0    999.0
 180    3:40   34.9    83    0.6   254      1.0   840.7    3.06       0    999.0
 180    3:50   34.7    84    0.9   258      1.6   840.8    3.06       0    999.0
 180    4:00   34.6    84    0.9   262      1.5   841.0    3.06       0    999.0
 180    4:10   34.6    84    1.1   267      1.6   840.5    3.06       0    999.0
 180    4:20   34.4    84    1.0   257      1.4   840.6    3.06       0    999.0
 180    4:30   34.3    84    0.7   263      1.5   840.7    3.06       1    999.0
 180    4:40   34.2    85    0.8   248      1.2   840.9    3.06       2    999.0
 180    4:50   34.2    85    0.7   276      1.5   840.7    3.06       5    999.0
 180    5:00   34.2    85    0.7   264      1.7   840.5    3.06       8    999.0
 180    5:10   34.3    85    0.8   270      1.4   840.8    3.06      12    999.0
 180    5:20   34.4    85    0.5   279      1.4   840.9    3.06      15    999.0
 180    5:30   34.8    84    0.9   273      1.8   841.0    3.06      20    999.0
 180    5:40   35.4    83    0.8   282      1.6   840.6    3.06      38    999.0
 180    5:50   36.5    82    0.3   291      1.5   840.8    3.06     152    999.0
 180    6:00   38.2    79    1.0   272      1.6   841.0    3.07     186    999.0
 180    6:10   40.2    78    0.2   267      0.7   841.2    3.06     217    999.0
 180    6:20   42.1    74    0.0   341      0.3   840.9    3.06     248    999.0
 180    6:30   45.0    73    0.2   344      0.9   840.8    3.06     280    999.0
 180    6:40   48.0    69    0.2   274      1.1   841.1    3.06     312    999.0
 180    6:50   49.2    69    0.0     0      0.0   840.9    3.06     345    999.0
 180    7:00   52.5    65    0.0     0      0.0   840.7    3.06     379    999.0
 180    7:10   55.3    61    0.4    90      2.0   841.0    3.06     412    999.0
 180    7:20   60.1    57    0.3   113      2.0   840.9    3.06     443    999.0
 180    7:30   62.5    51    1.1   101      2.4   840.8    3.06     474    999.0
 180    7:40   62.5    47    2.1   103      4.4   840.5    3.06     504    999.0
 180    7:50   62.8    42    3.2    94      4.9   840.6    3.06     533    999.0
 180    8:00   64.0    42    2.1   101      4.6   840.7    3.06     562    999.0
 180    8:10   65.9    41    1.8   102      3.2   840.5    3.06     593    999.0
 180    8:20   67.0    38    2.1    95      4.1   840.6    3.06     621    999.0
 180    8:30   68.3    37    2.3    93      4.2   840.7    3.06     649    999.0
 180    8:40   69.6    36    3.0    98      5.0   840.4    3.06     675    999.0
 180    8:50   71.0    37    2.5    89      5.2   840.6    3.06     701    999.0
 180    9:00   72.8    36    2.7    86      7.4   840.8    3.06     729    999.0
 180    9:10   72.6    35    3.4    89      7.0   840.8    3.06     747    999.0
 180    9:20   74.3    35    2.4    84      5.9   840.6    3.06     770    999.0
 180    9:30   75.9    30    2.9    84      5.7   840.5    3.06     795    999.0
 180    9:40   76.8    25    2.0    87      4.8   840.5    3.06     817    999.0
 180    9:50   78.7    15    2.0   253      6.1   840.5    3.06     844    999.0
 180   10:00   79.9    14    1.9   243      6.0   840.5    3.06     868    999.0
 180   10:10   81.0    14    2.2   259      5.2   840.6    3.06     887    999.0
 180   10:20   81.4    13    2.4   233      7.3   840.6    3.06     901    999.0
 180   10:30   81.5    12    2.5   283      5.6   840.6    3.06     915    999.0
 180   10:40   81.5    12    1.7   240      4.0   840.4    3.06     925    999.0
 180   10:50   82.5    13    2.2   250      6.7   840.4    3.06     939    999.0
 180   11:00   82.0    12    1.6   275      3.7   840.4    3.06     945    999.0
 180   11:10   82.8    11    2.2   249      6.6   840.8    3.06     954    999.0
 180   11:20   82.6    12    2.0   194      7.0   840.8    3.06     959    999.0
 180   11:30   82.4    10    2.5   232      7.0   840.8    3.06     932    999.0
 180   11:40   82.3    10    2.5   262      5.4   840.7    3.06     973    999.0
 180   11:50   82.5    11    2.5   257      6.6   840.5    3.06     969    999.0
 180   12:00   83.3    12    2.2   212      5.5   840.3    3.06     978    999.0
 180   12:10   83.4    12    1.6   214      5.8   840.3    3.06     977    999.0
 180   12:20   84.1    11    1.9   272      4.2   840.4    3.06     978    999.0
 180   12:30   83.8    13    2.4   206      6.4   840.5    3.06     972    999.0
 180   12:40   82.8    11    3.2   262      6.3   840.5    3.06     969    999.0
 180   12:50   83.2    13    2.0   249      5.0   840.5    3.06     957    999.0
 180   13:00   84.1    12    2.4   237      7.0   840.5    3.06     958    999.0
 180   13:10   84.7    12    2.4   240      8.6   840.2    3.06     952    999.0
 180   13:20   83.6    13    2.5   191      5.6   840.1    3.06     941    999.0
 180   13:30   83.7    11    3.1   208      8.7   840.0    3.06     932    999.0
 180   13:40   83.9    12    2.9   242      7.9   840.3    3.06     917    999.0
 180   13:50   84.4    12    2.4   283      5.9   840.4    3.06     902    999.0
 180   14:00   84.7    12    2.3   242      4.7   840.5    3.06     891    999.0
 180   14:10   85.1    12    2.6   282      5.6   840.4    3.06     876    999.0
 180   14:20   85.2    12    2.6   279      6.5   840.2    3.06     859    999.0
 180   14:30   84.3    12    2.4   258      7.0   840.0    3.06     838    999.0
 180   14:40   84.3    12    2.2   229      7.4   839.7    3.06     821    999.0
 180   14:50   84.5    13    2.0   222      7.9   839.9    3.06     799    999.0
 180   15:00   83.9    13    2.8   276      6.6   840.1    3.06     776    999.0
 180   15:10   84.4    12    1.8   244      5.8   840.1    3.06     754    999.0
 180   15:20   84.4    11    2.1   235      7.5   840.0    3.06     732    999.0
 180   15:30   84.2    11    2.0   236      5.8   839.8    3.06     706    999.0
 180   15:40   83.2    10    2.8   241      8.0   839.5    3.06     679    999.0
 180   15:50   83.5    11    2.2   258      7.4   839.6    3.06     648    999.0
 180   16:00   83.5    11    2.7   273      7.1   839.7    3.06     622    999.0
 180   16:10   82.6    12    2.3   228      5.6   839.9    3.06     590    999.0
 180   16:20   82.9    12    2.3   234      5.5   839.8    3.06     559    999.0
 180   16:30   82.4    12    2.4   259      5.4   839.8    3.06     529    999.0
 180   16:40   82.3    15    2.3   267      6.3   839.5    3.06     498    999.0
 180   16:50   81.8    13    2.9   277      7.9   839.4    3.06     462    999.0
 180   17:00   81.0    14    2.3   248      5.3   839.3    3.06     409    999.0
 180   17:10   79.5    14    2.0   228      7.2   839.2    3.06     155    999.0
 180   17:20   78.6    16    1.8   218      5.4   839.2    3.06     209    999.0
 180   17:30   77.8    18    1.0   209      2.8   839.2    3.06     108    999.0
 180   17:40   77.4    19    2.1   261      5.7   839.1    3.06      33    999.0
 180   17:50   76.8    20    1.7   242      4.5   839.1    3.06      49    999.0
 180   18:00   76.2    21    1.9   254      4.3   839.1    3.06     210    999.0
 180   18:10   75.4    22    1.6   230      4.3   839.3    3.06     141    999.0
 180   18:20   74.9    22    1.1   242      6.0   839.5    3.06      25    999.0
 180   18:30   74.0    23    0.6   340      2.0   839.7    3.06      22    999.0
 180   18:40   72.3    26    0.6   330      1.5   839.7    3.06      18    999.0
 180   18:50   70.8    29    0.5   308      1.7   839.7    3.06      17    999.0
 180   19:00   69.2    34    0.3    39      1.4   839.7    3.06      14    999.0
 180   19:10   67.0    40    0.1    69      1.5   839.8    3.06      10    999.0
 180   19:20   65.0    44    0.1   242      0.8   839.9    3.06       9    999.0
 180   19:30   63.5    46    0.1   265      0.6   840.0    3.06       6    999.0
 180   19:40   62.3    47    0.4   249      1.3   839.5    3.06       3    999.0
 180   19:50   60.9    50    0.1   274      0.8   839.5    3.06       1    999.0
 180   20:00   59.7    51    0.2   234      0.9   839.6    3.06       0    999.0

Return to Sagehen Creek graphs page.


Western Regional Climate Center,wrcc@dri.edu